METAR Data
IDs: Format: Raw Decoded Include TAF

Data at: 0205 UTC 29 Nov 2020

METAR for:KGGI (Grinnell Rgnl, IA, US)
Text:KGGI 290155Z AUTO 22009KT 10SM CLR 09/02 A3003 RMK AO2 T00860015
Temperature: 8.6°C ( 47°F)
Dewpoint: 1.5°C ( 35°F) [RH = 61%]
Pressure (altimeter):30.03 inches Hg (1017.0 mb)
Winds:from the SW (220 degrees) at 10 MPH (9 knots; 4.6 m/s)
Visibility:10 or more sm (16+ km)
Ceiling:at least 12,000 feet AGL
Clouds:sky clear below 12,000 feet AGL
QC Flag:automated observation with no human augmentation